Terminal Aerodrome Forecast
Issued by NWS Norman, OK

Home | Current Version | Previous Version | Text Only | Print | Product List | Glossary On
Versions: 1 2 3 4 5 6 7 8 9 10 11 12 13 14 15 16
000
FTUS44 KOUN 242328
TAFSPS
TAF
KSPS 242328Z 2500/2524 16012KT P6SM BKN070
     FM251100 17012KT P6SM BKN019
     FM251600 17014G22KT P6SM BKN035=

USA.gov is the U.S. government's official web portal to all federal, state and local government web resources and services.